Time,TemperatureF,DewpointF,PressureIn,WindDirection,WindDirectionDegrees,WindSpeedMPH,WindSpeedGustMPH,Humidity,HourlyPrecipIn,Conditions,Clouds,dailyrainin,SoftwareType,DateUTC
2013-05-10 00:02:00,57.0,54.0,30.03,NNW,330,8.0,-999.0,87,-99.99,,,-99.99,,2013-05-10 05:02:00,
2013-05-10 00:12:00,57.0,54.0,30.03,NNW,330,8.0,-999.0,87,-99.99,,,-99.99,,2013-05-10 05:12:00,
2013-05-10 00:22:00,57.0,54.0,30.03,NNW,330,8.0,-999.0,87,-99.99,,,-99.99,,2013-05-10 05:22:00,
2013-05-10 00:32:00,57.0,54.0,30.03,NNW,330,8.0,-999.0,87,-99.99,,,-99.99,,2013-05-10 05:32:00,
2013-05-10 00:42:00,57.0,54.0,30.03,NNW,330,8.0,-999.0,87,-99.99,,,-99.99,,2013-05-10 05:42:00,
2013-05-10 00:52:00,57.0,54.0,30.04,NNW,330,7.0,-999.0,87,-99.99,,,-99.99,,2013-05-10 05:52:00,
2013-05-10 01:01:00,57.0,54.0,30.04,NNW,330,7.0,-999.0,87,-99.99,,,-99.99,,2013-05-10 06:01:00,
2013-05-10 01:12:00,57.0,54.0,30.05,NNW,330,6.0,-999.0,87,-99.99,,,-99.99,,2013-05-10 06:12:00,
2013-05-10 01:21:00,57.0,54.0,30.05,NNW,330,5.0,-999.0,87,-99.99,,,-99.99,,2013-05-10 06:21:00,
2013-05-10 01:32:00,57.0,54.0,30.05,NW,310,5.0,-999.0,87,-99.99,,,-99.99,,2013-05-10 06:32:00,
2013-05-10 01:42:00,57.0,54.0,30.05,NW,320,5.0,-999.0,87,-99.99,,,-99.99,,2013-05-10 06:42:00,
2013-05-10 01:51:00,57.0,54.0,30.05,NNW,330,5.0,-999.0,87,-99.99,,,-99.99,,2013-05-10 06:51:00,
2013-05-10 02:01:00,57.0,54.0,30.05,NNW,330,5.0,-999.0,87,-99.99,,,-99.99,,2013-05-10 07:01:00,
2013-05-10 02:11:00,57.0,54.0,30.04,NW,320,5.0,-999.0,87,-99.99,,,-99.99,,2013-05-10 07:11:00,
2013-05-10 02:22:00,55.0,54.0,30.05,North,0,0.0,-999.0,93,-99.99,,,-99.99,,2013-05-10 07:22:00,
2013-05-10 02:31:00,55.0,54.0,30.05,NW,310,5.0,-999.0,93,-99.99,,,-99.99,,2013-05-10 07:31:00,
2013-05-10 02:42:00,55.0,54.0,30.04,NW,320,5.0,-999.0,93,-99.99,,,-99.99,,2013-05-10 07:42:00,
2013-05-10 02:52:00,55.0,54.0,30.05,NW,310,6.0,-999.0,93,-99.99,,,-99.99,,2013-05-10 07:52:00,
2013-05-10 03:02:00,55.0,54.0,30.05,NW,310,6.0,-999.0,93,-99.99,,,-99.99,,2013-05-10 08:02:00,
2013-05-10 03:12:00,55.0,54.0,30.05,NW,310,6.0,-999.0,93,-99.99,,,-99.99,,2013-05-10 08:12:00,
2013-05-10 03:21:00,55.0,54.0,30.05,NW,320,8.0,-999.0,93,-99.99,,,-99.99,,2013-05-10 08:21:00,
2013-05-10 03:32:00,55.0,54.0,30.05,NNW,330,9.0,-999.0,93,-99.99,,,-99.99,,2013-05-10 08:32:00,
2013-05-10 03:42:00,54.0,54.0,30.05,NNW,330,10.0,-999.0,100,-99.99,,,-99.99,,2013-05-10 08:42:00,
2013-05-10 03:52:00,54.0,52.0,30.05,NNW,330,10.0,-999.0,93,-99.99,,,-99.99,,2013-05-10 08:52:00,
2013-05-10 04:01:00,54.0,52.0,30.05,NNW,330,10.0,-999.0,93,-99.99,,,-99.99,,2013-05-10 09:01:00,
2013-05-10 04:11:00,54.0,54.0,30.05,NW,320,9.0,-999.0,100,-99.99,,,-99.99,,2013-05-10 09:11:00,
2013-05-10 04:21:00,54.0,52.0,30.05,NW,320,10.0,-999.0,93,-99.99,,,-99.99,,2013-05-10 09:21:00,
2013-05-10 04:32:00,54.0,52.0,30.05,NW,320,9.0,-999.0,93,-99.99,,,-99.99,,2013-05-10 09:32:00,
2013-05-10 04:42:00,52.0,52.0,30.06,NW,320,7.0,-999.0,100,-99.99,,,-99.99,,2013-05-10 09:42:00,
2013-05-10 04:52:00,52.0,52.0,30.06,NW,320,7.0,-999.0,100,-99.99,,,-99.99,,2013-05-10 09:52:00,
2013-05-10 05:03:00,52.0,52.0,30.06,NW,320,7.0,-999.0,100,-99.99,,,-99.99,,2013-05-10 10:03:00,
2013-05-10 05:12:00,52.0,50.0,30.06,NW,320,6.0,-999.0,93,-99.99,,,-99.99,,2013-05-10 10:12:00,
2013-05-10 05:23:00,50.0,50.0,30.06,NW,320,6.0,-999.0,100,-99.99,,,-99.99,,2013-05-10 10:23:00,
2013-05-10 05:32:00,50.0,48.0,30.07,NW,320,6.0,-999.0,93,-99.99,,,-99.99,,2013-05-10 10:32:00,
2013-05-10 05:42:00,50.0,48.0,30.07,NW,320,7.0,-999.0,93,-99.99,,,-99.99,,2013-05-10 10:42:00,
2013-05-10 05:52:00,48.0,48.0,30.07,NNW,340,6.0,-999.0,100,-99.99,,,-99.99,,2013-05-10 10:52:00,
2013-05-10 06:02:00,48.0,48.0,30.07,NNW,340,6.0,-999.0,100,-99.99,,,-99.99,,2013-05-10 11:02:00,
2013-05-10 06:12:00,50.0,50.0,30.07,NNW,340,8.0,-999.0,100,-99.99,,,-99.99,,2013-05-10 11:12:00,
2013-05-10 06:21:00,52.0,50.0,30.08,NNW,340,8.0,-999.0,93,-99.99,,,-99.99,,2013-05-10 11:21:00,
2013-05-10 06:32:00,52.0,50.0,30.08,NNW,330,9.0,-999.0,93,-99.99,,,-99.99,,2013-05-10 11:32:00,
2013-05-10 06:42:00,52.0,50.0,30.08,NNW,340,9.0,-999.0,93,-99.99,,,-99.99,,2013-05-10 11:42:00,
2013-05-10 06:51:00,52.0,52.0,30.09,North,350,8.0,-999.0,100,-99.99,,,-99.99,,2013-05-10 11:51:00,
2013-05-10 07:01:00,52.0,52.0,30.09,North,350,8.0,-999.0,100,-99.99,,,-99.99,,2013-05-10 12:01:00,
2013-05-10 07:11:00,52.0,52.0,30.09,North,360,10.0,-999.0,100,-99.99,,,-99.99,,2013-05-10 12:11:00,
2013-05-10 07:21:00,52.0,52.0,30.10,North,350,9.0,-999.0,100,-99.99,,,-99.99,,2013-05-10 12:21:00,
2013-05-10 07:32:00,52.0,52.0,30.09,North,350,9.0,-999.0,100,-99.99,,,-99.99,,2013-05-10 12:32:00,
2013-05-10 07:42:00,52.0,52.0,30.09,NNW,340,13.0,-999.0,100,-99.99,,,-99.99,,2013-05-10 12:42:00,
2013-05-10 07:51:00,52.0,52.0,30.10,North,350,9.0,-999.0,100,-99.99,,,-99.99,,2013-05-10 12:51:00,
2013-05-10 08:01:00,52.0,52.0,30.10,North,350,9.0,-999.0,100,-99.99,,,-99.99,,2013-05-10 13:01:00,
2013-05-10 08:11:00,52.0,50.0,30.10,North,350,13.0,-999.0,93,-99.99,,,-99.99,,2013-05-10 13:11:00,
2013-05-10 08:21:00,52.0,52.0,30.10,North,350,10.0,16.0,100,-99.99,,,-99.99,,2013-05-10 13:21:00,
2013-05-10 08:32:00,54.0,52.0,30.10,North,10,14.0,-999.0,93,-99.99,,,-99.99,,2013-05-10 13:32:00,
2013-05-10 08:41:00,52.0,50.0,30.10,North,10,13.0,-999.0,93,-99.99,,,-99.99,,2013-05-10 13:41:00,
2013-05-10 08:52:00,54.0,50.0,30.11,North,350,13.0,-999.0,87,-99.99,,,-99.99,,2013-05-10 13:52:00,
2013-05-10 09:02:00,54.0,50.0,30.11,North,350,13.0,-999.0,87,-99.99,,,-99.99,,2013-05-10 14:02:00,
2013-05-10 09:11:00,54.0,50.0,30.12,North,350,10.0,-999.0,87,-99.99,,,-99.99,,2013-05-10 14:11:00,
2013-05-10 09:21:00,54.0,50.0,30.12,North,360,12.0,-999.0,87,-99.99,,,-99.99,,2013-05-10 14:21:00,
2013-05-10 09:32:00,54.0,48.0,30.13,North,350,10.0,-999.0,81,-99.99,,,-99.99,,2013-05-10 14:32:00,
2013-05-10 09:41:00,54.0,50.0,30.12,North,350,12.0,-999.0,87,-99.99,,,-99.99,,2013-05-10 14:41:00,
2013-05-10 09:51:00,55.0,50.0,30.12,North,350,10.0,-999.0,81,-99.99,,,-99.99,,2013-05-10 14:51:00,
2013-05-10 10:01:00,55.0,50.0,30.12,North,350,10.0,-999.0,81,-99.99,,,-99.99,,2013-05-10 15:01:00,
2013-05-10 10:20:00,-999.0,-99.9,30.12,NNW,340,12.0,16.0,87,-99.99,,,-99.99,,2013-05-10 15:20:00,
2013-05-10 10:32:00,57.0,52.0,30.11,North,10,12.0,16.0,82,-99.99,,,-99.99,,2013-05-10 15:32:00,
2013-05-10 10:42:00,59.0,52.0,30.11,North,360,9.0,17.0,76,-99.99,,,-99.99,,2013-05-10 15:42:00,
2013-05-10 10:52:00,59.0,52.0,30.12,North,360,12.0,16.0,76,-99.99,,,-99.99,,2013-05-10 15:52:00,
2013-05-10 11:02:00,59.0,52.0,30.12,North,360,12.0,16.0,76,-99.99,,,-99.99,,2013-05-10 16:02:00,
2013-05-10 11:12:00,61.0,52.0,30.11,NNW,340,15.0,-999.0,72,-99.99,,,-99.99,,2013-05-10 16:12:00,
2013-05-10 11:23:00,61.0,52.0,30.11,North,360,14.0,-999.0,72,-99.99,,,-99.99,,2013-05-10 16:23:00,
2013-05-10 11:32:00,63.0,52.0,30.11,North,350,14.0,18.0,67,-99.99,,,-99.99,,2013-05-10 16:32:00,
2013-05-10 11:42:00,63.0,52.0,30.12,North,360,13.0,-999.0,67,-99.99,,,-99.99,,2013-05-10 16:42:00,
2013-05-10 11:52:00,63.0,52.0,30.12,NNW,340,9.0,-999.0,67,-99.99,,,-99.99,,2013-05-10 16:52:00,
2013-05-10 12:02:00,63.0,52.0,30.12,NNW,340,9.0,-999.0,67,-99.99,,,-99.99,,2013-05-10 17:02:00,
2013-05-10 12:12:00,64.0,52.0,30.12,North,350,9.0,17.0,63,-99.99,,,-99.99,,2013-05-10 17:12:00,
2013-05-10 12:21:00,63.0,52.0,30.13,NNW,340,9.0,-999.0,67,-99.99,,,-99.99,,2013-05-10 17:21:00,
2013-05-10 12:32:00,64.0,52.0,30.13,NNW,330,8.0,18.0,63,-99.99,,,-99.99,,2013-05-10 17:32:00,
2013-05-10 12:42:00,64.0,50.0,30.13,North,10,9.0,-999.0,59,-99.99,,,-99.99,,2013-05-10 17:42:00,
2013-05-10 12:52:00,64.0,52.0,30.13,NW,320,9.0,-999.0,63,-99.99,,,-99.99,,2013-05-10 17:52:00,
2013-05-10 13:10:00,-999.0,-99.9,30.13,NW,320,9.0,-999.0,63,-99.99,,,-99.99,,2013-05-10 18:10:00,
2013-05-10 13:21:00,66.0,48.0,30.12,NNE,20,9.0,-999.0,52,-99.99,,,-99.99,,2013-05-10 18:21:00,
2013-05-10 13:34:00,66.0,48.0,30.13,North,350,6.0,-999.0,52,-99.99,,,-99.99,,2013-05-10 18:34:00,
2013-05-10 13:43:00,66.0,52.0,30.12,NNE,20,9.0,-999.0,59,-99.99,,,-99.99,,2013-05-10 18:43:00,
2013-05-10 13:54:00,68.0,50.0,30.12,NNE,20,7.0,-999.0,52,-99.99,,,-99.99,,2013-05-10 18:54:00,
2013-05-10 14:02:00,68.0,50.0,30.12,NNE,20,7.0,-999.0,52,-99.99,,,-99.99,,2013-05-10 19:02:00,
2013-05-10 14:11:00,70.0,48.0,30.11,NW,320,7.0,-999.0,46,-99.99,,,-99.99,,2013-05-10 19:11:00,
2013-05-10 14:21:00,70.0,48.0,30.11,North,350,8.0,-999.0,46,-99.99,,,-99.99,,2013-05-10 19:21:00,
2013-05-10 14:32:00,70.0,48.0,30.11,NNW,330,10.0,-999.0,46,-99.99,,,-99.99,,2013-05-10 19:32:00,
2013-05-10 14:42:00,70.0,46.0,30.10,NNW,330,7.0,-999.0,43,-99.99,,,-99.99,,2013-05-10 19:42:00,
2013-05-10 14:52:00,70.0,46.0,30.10,NW,320,9.0,-999.0,43,-99.99,,,-99.99,,2013-05-10 19:52:00,
2013-05-10 15:01:00,70.0,46.0,30.10,NW,320,9.0,-999.0,43,-99.99,,,-99.99,,2013-05-10 20:01:00,
2013-05-10 15:12:00,70.0,46.0,30.09,NNW,340,9.0,-999.0,43,-99.99,,,-99.99,,2013-05-10 20:12:00,
2013-05-10 15:21:00,72.0,46.0,30.08,North,360,8.0,-999.0,40,-99.99,,,-99.99,,2013-05-10 20:21:00,
2013-05-10 15:32:00,72.0,46.0,30.07,North,360,7.0,16.0,40,-99.99,,,-99.99,,2013-05-10 20:32:00,
2013-05-10 15:41:00,70.0,46.0,30.07,NNE,30,9.0,16.0,43,-99.99,,,-99.99,,2013-05-10 20:41:00,
2013-05-10 15:52:00,72.0,46.0,30.06,NNE,30,8.0,-999.0,40,-99.99,,,-99.99,,2013-05-10 20:52:00,
2013-05-10 16:02:00,72.0,46.0,30.06,NNE,30,8.0,-999.0,40,-99.99,,,-99.99,,2013-05-10 21:02:00,
2013-05-10 16:11:00,72.0,46.0,30.06,North,10,13.0,17.0,40,-99.99,,,-99.99,,2013-05-10 21:11:00,
2013-05-10 16:24:00,73.0,45.0,30.06,NNW,340,10.0,-999.0,35,-99.99,,,-99.99,,2013-05-10 21:24:00,
2013-05-10 16:32:00,72.0,45.0,30.05,North,10,12.0,-999.0,37,-99.99,,,-99.99,,2013-05-10 21:32:00,
2013-05-10 16:43:00,72.0,45.0,30.05,North,10,10.0,-999.0,37,-99.99,,,-99.99,,2013-05-10 21:43:00,
2013-05-10 16:52:00,72.0,43.0,30.05,NNW,340,7.0,-999.0,35,-99.99,,,-99.99,,2013-05-10 21:52:00,
2013-05-10 17:02:00,72.0,43.0,30.05,NNW,340,7.0,-999.0,35,-99.99,,,-99.99,,2013-05-10 22:02:00,
2013-05-10 17:12:00,72.0,45.0,30.04,North,360,13.0,-999.0,37,-99.99,,,-99.99,,2013-05-10 22:12:00,
2013-05-10 17:22:00,73.0,45.0,30.04,North,10,8.0,-999.0,35,-99.99,,,-99.99,,2013-05-10 22:22:00,
2013-05-10 17:32:00,72.0,43.0,30.04,North,360,10.0,-999.0,35,-99.99,,,-99.99,,2013-05-10 22:32:00,
2013-05-10 17:42:00,73.0,43.0,30.04,North,10,8.0,-999.0,33,-99.99,,,-99.99,,2013-05-10 22:42:00,
2013-05-10 17:52:00,73.0,45.0,30.04,NNE,20,10.0,-999.0,35,-99.99,,,-99.99,,2013-05-10 22:52:00,
2013-05-10 18:02:00,73.0,45.0,30.04,NNE,20,10.0,-999.0,35,-99.99,,,-99.99,,2013-05-10 23:02:00,
2013-05-10 18:12:00,73.0,43.0,30.04,North,10,6.0,-999.0,33,-99.99,,,-99.99,,2013-05-10 23:12:00,
2013-05-10 18:22:00,72.0,45.0,30.03,NNE,30,8.0,-999.0,37,-99.99,,,-99.99,,2013-05-10 23:22:00,
2013-05-10 18:32:00,72.0,45.0,30.03,NNE,30,7.0,-999.0,37,-99.99,,,-99.99,,2013-05-10 23:32:00,
2013-05-10 18:41:00,72.0,45.0,30.03,NNE,30,5.0,-999.0,37,-99.99,,,-99.99,,2013-05-10 23:41:00,
2013-05-10 18:52:00,72.0,45.0,30.03,NE,40,5.0,-999.0,37,-99.99,,,-99.99,,2013-05-10 23:52:00,
2013-05-10 19:02:00,72.0,45.0,30.03,NE,40,5.0,-999.0,37,-99.99,,,-99.99,,2013-05-11 00:02:00,
2013-05-10 19:11:00,72.0,45.0,30.03,NE,40,5.0,-999.0,37,-99.99,,,-99.99,,2013-05-11 00:11:00,
2013-05-10 19:21:00,70.0,46.0,30.03,NE,40,5.0,-999.0,43,-99.99,,,-99.99,,2013-05-11 00:21:00,
2013-05-10 19:32:00,70.0,46.0,30.03,NE,40,3.0,-999.0,43,-99.99,,,-99.99,,2013-05-11 00:32:00,
2013-05-10 19:42:00,70.0,48.0,30.03,NE,50,5.0,-999.0,46,-99.99,,,-99.99,,2013-05-11 00:42:00,
2013-05-10 19:51:00,68.0,50.0,30.03,ENE,60,3.0,-999.0,52,-99.99,,,-99.99,,2013-05-11 00:51:00,
2013-05-10 20:01:00,68.0,50.0,30.03,ENE,60,3.0,-999.0,52,-99.99,,,-99.99,,2013-05-11 01:01:00,
2013-05-10 20:11:00,68.0,48.0,30.03,North,0,0.0,-999.0,49,-99.99,,,-99.99,,2013-05-11 01:11:00,
2013-05-10 20:21:00,68.0,46.0,30.04,North,0,0.0,-999.0,45,-99.99,,,-99.99,,2013-05-11 01:21:00,
2013-05-10 20:31:00,66.0,46.0,30.04,North,0,0.0,-999.0,48,-99.99,,,-99.99,,2013-05-11 01:31:00,
2013-05-10 20:42:00,66.0,46.0,30.04,North,0,0.0,-999.0,48,-99.99,,,-99.99,,2013-05-11 01:42:00,
2013-05-10 20:52:00,63.0,48.0,30.05,North,0,0.0,-999.0,59,-99.99,,,-99.99,,2013-05-11 01:52:00,
2013-05-10 21:02:00,63.0,48.0,30.05,North,0,0.0,-999.0,59,-99.99,,,-99.99,,2013-05-11 02:02:00,
2013-05-10 21:11:00,61.0,48.0,30.05,North,0,0.0,-999.0,63,-99.99,,,-99.99,,2013-05-11 02:11:00,
2013-05-10 21:21:00,59.0,48.0,30.05,North,0,0.0,-999.0,67,-99.99,,,-99.99,,2013-05-11 02:21:00,
2013-05-10 21:32:00,59.0,50.0,30.06,North,0,0.0,-999.0,72,-99.99,,,-99.99,,2013-05-11 02:32:00,
2013-05-10 21:42:00,57.0,50.0,30.06,North,0,0.0,-999.0,76,-99.99,,,-99.99,,2013-05-11 02:42:00,
2013-05-10 21:51:00,57.0,48.0,30.06,North,0,0.0,-999.0,71,-99.99,,,-99.99,,2013-05-11 02:51:00,
2013-05-10 22:01:00,57.0,48.0,30.06,North,0,0.0,-999.0,71,-99.99,,,-99.99,,2013-05-11 03:01:00,
2013-05-10 22:11:00,55.0,48.0,30.07,North,0,0.0,-999.0,76,-99.99,,,-99.99,,2013-05-11 03:11:00,
2013-05-10 22:21:00,57.0,48.0,30.07,North,0,0.0,-999.0,71,-99.99,,,-99.99,,2013-05-11 03:21:00,
2013-05-10 22:33:00,55.0,48.0,30.08,North,0,0.0,-999.0,76,-99.99,,,-99.99,,2013-05-11 03:33:00,
2013-05-10 22:42:00,55.0,48.0,30.08,North,0,0.0,-999.0,76,-99.99,,,-99.99,,2013-05-11 03:42:00,
2013-05-10 22:53:00,55.0,48.0,30.09,North,0,0.0,-999.0,76,-99.99,,,-99.99,,2013-05-11 03:53:00,
2013-05-10 23:02:00,55.0,48.0,30.09,North,0,0.0,-999.0,76,-99.99,,,-99.99,,2013-05-11 04:02:00,
2013-05-10 23:12:00,55.0,48.0,30.09,North,0,0.0,-999.0,76,-99.99,,,-99.99,,2013-05-11 04:12:00,
2013-05-10 23:23:00,54.0,48.0,30.09,North,0,0.0,-999.0,81,-99.99,,,-99.99,,2013-05-11 04:23:00,
2013-05-10 23:33:00,52.0,46.0,30.09,North,0,0.0,-999.0,81,-99.99,,,-99.99,,2013-05-11 04:33:00,
2013-05-10 23:43:00,52.0,46.0,30.09,North,0,0.0,-999.0,81,-99.99,,,-99.99,,2013-05-11 04:43:00,
2013-05-10 23:52:00,54.0,46.0,30.09,North,0,0.0,-999.0,76,-99.99,,,-99.99,,2013-05-11 04:52:00,